sensor_id;sensor_type;location;lat;lon;timestamp;P1;durP1;ratioP1;P2;durP2;ratioP2
65996;SDS011;52765;52.258;21.052;2023-02-28T00:01:15;20.58;;;8.43;;
65996;SDS011;52765;52.258;21.052;2023-02-28T00:03:41;21.63;;;8.52;;
65996;SDS011;52765;52.258;21.052;2023-02-28T00:06:07;22.13;;;8.35;;
65996;SDS011;52765;52.258;21.052;2023-02-28T00:08:34;23.50;;;8.57;;
65996;SDS011;52765;52.258;21.052;2023-02-28T00:11:03;19.35;;;9.07;;
65996;SDS011;52765;52.258;21.052;2023-02-28T00:13:31;23.73;;;9.82;;
65996;SDS011;52765;52.258;21.052;2023-02-28T00:16:03;24.45;;;10.20;;
65996;SDS011;52765;52.258;21.052;2023-02-28T00:18:31;29.58;;;10.88;;
65996;SDS011;52765;52.258;21.052;2023-02-28T00:20:59;30.73;;;11.25;;
65996;SDS011;52765;52.258;21.052;2023-02-28T00:23:25;28.77;;;11.20;;
65996;SDS011;52765;52.258;21.052;2023-02-28T00:25:51;31.27;;;11.55;;
65996;SDS011;52765;52.258;21.052;2023-02-28T00:28:18;31.42;;;12.00;;
65996;SDS011;52765;52.258;21.052;2023-02-28T00:30:45;31.67;;;11.55;;
65996;SDS011;52765;52.258;21.052;2023-02-28T00:33:11;26.92;;;10.05;;
65996;SDS011;52765;52.258;21.052;2023-02-28T00:35:39;25.45;;;9.75;;
65996;SDS011;52765;52.258;21.052;2023-02-28T00:38:05;27.13;;;9.65;;
65996;SDS011;52765;52.258;21.052;2023-02-28T00:40:31;28.67;;;10.55;;
65996;SDS011;52765;52.258;21.052;2023-02-28T00:42:56;32.05;;;11.00;;
65996;SDS011;52765;52.258;21.052;2023-02-28T00:45:22;28.55;;;10.90;;
65996;SDS011;52765;52.258;21.052;2023-02-28T00:47:47;24.23;;;10.60;;
65996;SDS011;52765;52.258;21.052;2023-02-28T00:50:16;31.80;;;11.13;;
65996;SDS011;52765;52.258;21.052;2023-02-28T00:52:42;27.42;;;11.10;;
65996;SDS011;52765;52.258;21.052;2023-02-28T00:55:08;28.45;;;11.00;;
65996;SDS011;52765;52.258;21.052;2023-02-28T00:57:35;26.88;;;11.00;;
65996;SDS011;52765;52.258;21.052;2023-02-28T01:00:02;30.08;;;11.75;;
65996;SDS011;52765;52.258;21.052;2023-02-28T01:02:28;29.25;;;12.82;;
65996;SDS011;52765;52.258;21.052;2023-02-28T01:04:54;36.33;;;11.70;;
65996;SDS011;52765;52.258;21.052;2023-02-28T01:07:20;35.55;;;13.07;;
65996;SDS011;52765;52.258;21.052;2023-02-28T01:09:45;41.05;;;13.93;;
65996;SDS011;52765;52.258;21.052;2023-02-28T01:12:10;33.33;;;12.07;;
65996;SDS011;52765;52.258;21.052;2023-02-28T01:14:36;28.52;;;11.93;;
65996;SDS011;52765;52.258;21.052;2023-02-28T01:17:02;27.08;;;11.98;;
65996;SDS011;52765;52.258;21.052;2023-02-28T01:19:28;25.70;;;10.98;;
65996;SDS011;52765;52.258;21.052;2023-02-28T01:21:53;25.98;;;11.02;;
65996;SDS011;52765;52.258;21.052;2023-02-28T01:24:19;33.08;;;12.73;;
65996;SDS011;52765;52.258;21.052;2023-02-28T01:26:44;28.52;;;11.70;;
65996;SDS011;52765;52.258;21.052;2023-02-28T01:29:10;30.05;;;11.77;;
65996;SDS011;52765;52.258;21.052;2023-02-28T01:31:36;29.02;;;12.27;;
65996;SDS011;52765;52.258;21.052;2023-02-28T01:34:02;29.15;;;11.80;;
65996;SDS011;52765;52.258;21.052;2023-02-28T01:36:28;33.15;;;11.75;;
65996;SDS011;52765;52.258;21.052;2023-02-28T01:38:54;25.42;;;11.35;;
65996;SDS011;52765;52.258;21.052;2023-02-28T01:41:24;28.00;;;12.48;;
65996;SDS011;52765;52.258;21.052;2023-02-28T01:46:23;31.15;;;14.25;;
65996;SDS011;52765;52.258;21.052;2023-02-28T01:51:41;35.45;;;15.40;;
65996;SDS011;52765;52.258;21.052;2023-02-28T01:54:16;38.15;;;15.27;;
65996;SDS011;52765;52.258;21.052;2023-02-28T01:57:10;71.50;;;23.15;;
65996;SDS011;52765;52.258;21.052;2023-02-28T01:59:44;64.68;;;20.58;;
65996;SDS011;52765;52.258;21.052;2023-02-28T02:02:11;117.60;;;28.08;;
65996;SDS011;52765;52.258;21.052;2023-02-28T02:04:43;94.90;;;26.00;;
65996;SDS011;52765;52.258;21.052;2023-02-28T02:07:23;72.22;;;23.00;;
65996;SDS011;52765;52.258;21.052;2023-02-28T02:09:59;77.55;;;22.25;;
65996;SDS011;52765;52.258;21.052;2023-02-28T02:15:06;64.97;;;21.23;;
65996;SDS011;52765;52.258;21.052;2023-02-28T02:17:42;55.20;;;18.30;;
65996;SDS011;52765;52.258;21.052;2023-02-28T02:20:25;44.53;;;16.92;;
65996;SDS011;52765;52.258;21.052;2023-02-28T02:23:27;45.97;;;16.50;;
65996;SDS011;52765;52.258;21.052;2023-02-28T02:25:56;41.30;;;16.48;;
65996;SDS011;52765;52.258;21.052;2023-02-28T02:37:31;47.10;;;17.60;;
65996;SDS011;52765;52.258;21.052;2023-02-28T02:40:20;41.53;;;16.58;;
65996;SDS011;52765;52.258;21.052;2023-02-28T02:48:18;43.40;;;18.67;;
65996;SDS011;52765;52.258;21.052;2023-02-28T02:50:48;48.45;;;19.35;;
65996;SDS011;52765;52.258;21.052;2023-02-28T02:53:17;51.80;;;20.08;;
65996;SDS011;52765;52.258;21.052;2023-02-28T02:55:47;49.67;;;19.40;;
65996;SDS011;52765;52.258;21.052;2023-02-28T02:58:19;55.85;;;21.15;;
65996;SDS011;52765;52.258;21.052;2023-02-28T03:00:51;56.08;;;21.48;;
65996;SDS011;52765;52.258;21.052;2023-02-28T03:03:19;60.78;;;24.13;;
65996;SDS011;52765;52.258;21.052;2023-02-28T03:05:54;58.25;;;22.08;;
65996;SDS011;52765;52.258;21.052;2023-02-28T03:08:21;60.00;;;24.55;;
65996;SDS011;52765;52.258;21.052;2023-02-28T03:10:50;69.88;;;25.88;;
65996;SDS011;52765;52.258;21.052;2023-02-28T03:13:37;76.75;;;26.75;;
65996;SDS011;52765;52.258;21.052;2023-02-28T03:27:10;84.22;;;29.15;;
65996;SDS011;52765;52.258;21.052;2023-02-28T03:29:43;100.90;;;31.33;;
65996;SDS011;52765;52.258;21.052;2023-02-28T03:32:26;117.70;;;36.38;;
65996;SDS011;52765;52.258;21.052;2023-02-28T03:37:32;110.90;;;36.40;;
65996;SDS011;52765;52.258;21.052;2023-02-28T03:40:03;112.03;;;35.60;;
65996;SDS011;52765;52.258;21.052;2023-02-28T03:42:34;97.93;;;30.75;;
65996;SDS011;52765;52.258;21.052;2023-02-28T03:45:11;97.78;;;28.90;;
65996;SDS011;52765;52.258;21.052;2023-02-28T03:47:44;109.25;;;30.80;;
65996;SDS011;52765;52.258;21.052;2023-02-28T03:50:29;94.00;;;28.55;;
65996;SDS011;52765;52.258;21.052;2023-02-28T03:53:04;96.40;;;30.20;;
65996;SDS011;52765;52.258;21.052;2023-02-28T04:01:08;106.90;;;31.85;;
65996;SDS011;52765;52.258;21.052;2023-02-28T04:03:36;102.30;;;30.02;;
65996;SDS011;52765;52.258;21.052;2023-02-28T04:06:03;83.25;;;28.23;;
65996;SDS011;52765;52.258;21.052;2023-02-28T04:08:31;75.15;;;25.48;;
65996;SDS011;52765;52.258;21.052;2023-02-28T04:11:06;96.43;;;28.10;;
65996;SDS011;52765;52.258;21.052;2023-02-28T04:13:56;76.43;;;26.10;;
65996;SDS011;52765;52.258;21.052;2023-02-28T04:16:22;65.32;;;23.98;;
65996;SDS011;52765;52.258;21.052;2023-02-28T04:18:47;65.70;;;24.17;;
65996;SDS011;52765;52.258;21.052;2023-02-28T04:21:13;69.72;;;23.15;;
65996;SDS011;52765;52.258;21.052;2023-02-28T04:23:38;79.63;;;27.30;;
65996;SDS011;52765;52.258;21.052;2023-02-28T04:26:04;75.65;;;27.30;;
65996;SDS011;52765;52.258;21.052;2023-02-28T04:28:31;84.95;;;30.65;;
65996;SDS011;52765;52.258;21.052;2023-02-28T04:31:03;85.53;;;28.90;;
65996;SDS011;52765;52.258;21.052;2023-02-28T04:33:30;84.55;;;28.50;;
65996;SDS011;52765;52.258;21.052;2023-02-28T04:36:03;77.55;;;28.15;;
65996;SDS011;52765;52.258;21.052;2023-02-28T04:38:32;84.53;;;29.38;;
65996;SDS011;52765;52.258;21.052;2023-02-28T04:40:59;78.13;;;29.17;;
65996;SDS011;52765;52.258;21.052;2023-02-28T04:43:26;82.30;;;29.67;;
65996;SDS011;52765;52.258;21.052;2023-02-28T04:45:53;82.30;;;29.92;;
65996;SDS011;52765;52.258;21.052;2023-02-28T04:48:22;78.05;;;29.00;;
65996;SDS011;52765;52.258;21.052;2023-02-28T04:50:48;77.53;;;28.05;;
65996;SDS011;52765;52.258;21.052;2023-02-28T04:53:14;75.43;;;30.13;;
65996;SDS011;52765;52.258;21.052;2023-02-28T04:55:39;76.00;;;29.02;;
65996;SDS011;52765;52.258;21.052;2023-02-28T04:58:05;78.75;;;30.70;;
65996;SDS011;52765;52.258;21.052;2023-02-28T05:00:31;76.60;;;27.42;;
65996;SDS011;52765;52.258;21.052;2023-02-28T05:02:56;74.88;;;29.27;;
65996;SDS011;52765;52.258;21.052;2023-02-28T05:05:22;77.93;;;28.23;;
65996;SDS011;52765;52.258;21.052;2023-02-28T05:07:47;81.82;;;29.02;;
65996;SDS011;52765;52.258;21.052;2023-02-28T05:10:12;68.70;;;27.45;;
65996;SDS011;52765;52.258;21.052;2023-02-28T05:12:38;69.25;;;28.00;;
65996;SDS011;52765;52.258;21.052;2023-02-28T05:15:04;74.45;;;28.02;;
65996;SDS011;52765;52.258;21.052;2023-02-28T05:17:30;72.70;;;27.48;;
65996;SDS011;52765;52.258;21.052;2023-02-28T05:19:56;72.30;;;26.55;;
65996;SDS011;52765;52.258;21.052;2023-02-28T05:22:21;71.93;;;27.02;;
65996;SDS011;52765;52.258;21.052;2023-02-28T05:24:47;68.93;;;26.17;;
65996;SDS011;52765;52.258;21.052;2023-02-28T05:27:12;69.68;;;24.83;;
65996;SDS011;52765;52.258;21.052;2023-02-28T05:29:38;62.50;;;24.73;;
65996;SDS011;52765;52.258;21.052;2023-02-28T05:32:11;60.10;;;24.77;;
65996;SDS011;52765;52.258;21.052;2023-02-28T05:34:40;64.68;;;25.48;;
65996;SDS011;52765;52.258;21.052;2023-02-28T05:37:07;66.97;;;24.13;;
65996;SDS011;52765;52.258;21.052;2023-02-28T05:39:37;66.07;;;25.85;;
65996;SDS011;52765;52.258;21.052;2023-02-28T05:42:02;72.78;;;25.95;;
65996;SDS011;52765;52.258;21.052;2023-02-28T05:44:28;59.78;;;24.17;;
65996;SDS011;52765;52.258;21.052;2023-02-28T05:46:53;64.43;;;24.73;;
65996;SDS011;52765;52.258;21.052;2023-02-28T05:49:19;74.40;;;27.40;;
65996;SDS011;52765;52.258;21.052;2023-02-28T05:51:45;64.85;;;26.50;;
65996;SDS011;52765;52.258;21.052;2023-02-28T05:54:10;69.82;;;24.67;;
65996;SDS011;52765;52.258;21.052;2023-02-28T05:56:36;64.90;;;22.77;;
65996;SDS011;52765;52.258;21.052;2023-02-28T05:59:03;55.58;;;20.50;;
65996;SDS011;52765;52.258;21.052;2023-02-28T06:01:33;49.70;;;19.60;;
65996;SDS011;52765;52.258;21.052;2023-02-28T06:04:04;44.58;;;17.92;;
65996;SDS011;52765;52.258;21.052;2023-02-28T06:06:31;49.20;;;19.08;;
65996;SDS011;52765;52.258;21.052;2023-02-28T06:08:59;47.13;;;19.33;;
65996;SDS011;52765;52.258;21.052;2023-02-28T06:11:25;51.38;;;20.33;;
65996;SDS011;52765;52.258;21.052;2023-02-28T06:13:58;57.78;;;19.15;;
65996;SDS011;52765;52.258;21.052;2023-02-28T06:16:26;58.15;;;20.98;;
65996;SDS011;52765;52.258;21.052;2023-02-28T06:18:52;65.72;;;24.20;;
65996;SDS011;52765;52.258;21.052;2023-02-28T06:21:17;73.15;;;30.70;;
65996;SDS011;52765;52.258;21.052;2023-02-28T06:23:43;63.63;;;27.00;;
65996;SDS011;52765;52.258;21.052;2023-02-28T06:26:10;69.40;;;26.02;;
65996;SDS011;52765;52.258;21.052;2023-02-28T06:28:36;63.00;;;19.98;;
65996;SDS011;52765;52.258;21.052;2023-02-28T06:31:19;49.15;;;18.42;;
65996;SDS011;52765;52.258;21.052;2023-02-28T06:33:45;54.85;;;20.05;;
65996;SDS011;52765;52.258;21.052;2023-02-28T06:36:12;54.45;;;22.40;;
65996;SDS011;52765;52.258;21.052;2023-02-28T06:38:39;65.93;;;26.63;;
65996;SDS011;52765;52.258;21.052;2023-02-28T06:41:06;57.15;;;25.23;;
65996;SDS011;52765;52.258;21.052;2023-02-28T06:43:33;65.55;;;24.25;;
65996;SDS011;52765;52.258;21.052;2023-02-28T06:46:01;53.53;;;22.23;;
65996;SDS011;52765;52.258;21.052;2023-02-28T06:48:28;57.90;;;23.27;;
65996;SDS011;52765;52.258;21.052;2023-02-28T06:51:10;55.65;;;22.23;;
65996;SDS011;52765;52.258;21.052;2023-02-28T06:53:38;67.82;;;24.45;;
65996;SDS011;52765;52.258;21.052;2023-02-28T06:56:08;54.78;;;23.83;;
65996;SDS011;52765;52.258;21.052;2023-02-28T06:58:37;60.58;;;22.75;;
65996;SDS011;52765;52.258;21.052;2023-02-28T07:01:07;57.72;;;20.50;;
65996;SDS011;52765;52.258;21.052;2023-02-28T07:03:36;51.20;;;20.55;;
65996;SDS011;52765;52.258;21.052;2023-02-28T07:06:08;60.78;;;21.27;;
65996;SDS011;52765;52.258;21.052;2023-02-28T07:08:34;54.42;;;20.95;;
65996;SDS011;52765;52.258;21.052;2023-02-28T07:11:05;54.10;;;19.88;;
65996;SDS011;52765;52.258;21.052;2023-02-28T07:13:31;55.75;;;21.38;;
65996;SDS011;52765;52.258;21.052;2023-02-28T07:16:01;51.13;;;19.25;;
65996;SDS011;52765;52.258;21.052;2023-02-28T07:18:28;45.10;;;17.77;;
65996;SDS011;52765;52.258;21.052;2023-02-28T07:21:06;48.67;;;18.10;;
65996;SDS011;52765;52.258;21.052;2023-02-28T07:23:40;41.95;;;14.88;;
65996;SDS011;52765;52.258;21.052;2023-02-28T07:26:07;36.97;;;13.20;;
65996;SDS011;52765;52.258;21.052;2023-02-28T07:28:37;30.00;;;12.95;;
65996;SDS011;52765;52.258;21.052;2023-02-28T07:31:05;27.17;;;10.68;;
65996;SDS011;52765;52.258;21.052;2023-02-28T07:33:33;33.95;;;9.75;;
65996;SDS011;52765;52.258;21.052;2023-02-28T07:36:00;22.38;;;9.00;;
65996;SDS011;52765;52.258;21.052;2023-02-28T07:38:29;17.90;;;8.70;;
65996;SDS011;52765;52.258;21.052;2023-02-28T07:40:54;20.70;;;8.25;;
65996;SDS011;52765;52.258;21.052;2023-02-28T07:43:20;19.58;;;7.95;;
65996;SDS011;52765;52.258;21.052;2023-02-28T07:45:45;26.08;;;8.23;;
65996;SDS011;52765;52.258;21.052;2023-02-28T07:48:20;16.27;;;6.82;;
65996;SDS011;52765;52.258;21.052;2023-02-28T07:50:49;12.80;;;6.65;;
65996;SDS011;52765;52.258;21.052;2023-02-28T07:53:20;12.45;;;6.25;;
65996;SDS011;52765;52.258;21.052;2023-02-28T07:55:45;12.70;;;6.82;;
65996;SDS011;52765;52.258;21.052;2023-02-28T07:58:12;10.57;;;6.20;;
65996;SDS011;52765;52.258;21.052;2023-02-28T08:00:38;12.57;;;5.75;;
65996;SDS011;52765;52.258;21.052;2023-02-28T08:03:08;11.43;;;5.47;;
65996;SDS011;52765;52.258;21.052;2023-02-28T08:05:39;9.27;;;4.68;;
65996;SDS011;52765;52.258;21.052;2023-02-28T08:08:06;11.35;;;4.95;;
65996;SDS011;52765;52.258;21.052;2023-02-28T08:10:32;9.02;;;4.45;;
65996;SDS011;52765;52.258;21.052;2023-02-28T08:12:57;10.52;;;5.03;;
65996;SDS011;52765;52.258;21.052;2023-02-28T08:15:23;8.93;;;5.47;;
65996;SDS011;52765;52.258;21.052;2023-02-28T08:18:11;11.17;;;4.90;;
65996;SDS011;52765;52.258;21.052;2023-02-28T08:20:45;9.57;;;5.68;;
65996;SDS011;52765;52.258;21.052;2023-02-28T08:23:11;12.27;;;5.78;;
65996;SDS011;52765;52.258;21.052;2023-02-28T08:25:36;13.65;;;5.97;;
65996;SDS011;52765;52.258;21.052;2023-02-28T08:28:02;16.08;;;6.63;;
65996;SDS011;52765;52.258;21.052;2023-02-28T08:30:27;16.52;;;6.50;;
65996;SDS011;52765;52.258;21.052;2023-02-28T08:32:59;14.43;;;6.55;;
65996;SDS011;52765;52.258;21.052;2023-02-28T08:35:31;12.43;;;6.32;;
65996;SDS011;52765;52.258;21.052;2023-02-28T08:37:59;10.65;;;6.10;;
65996;SDS011;52765;52.258;21.052;2023-02-28T08:40:32;13.77;;;5.72;;
65996;SDS011;52765;52.258;21.052;2023-02-28T08:42:57;11.52;;;6.63;;
65996;SDS011;52765;52.258;21.052;2023-02-28T08:45:30;12.18;;;5.90;;
65996;SDS011;52765;52.258;21.052;2023-02-28T08:47:55;13.07;;;6.15;;
65996;SDS011;52765;52.258;21.052;2023-02-28T08:50:24;13.02;;;6.07;;
65996;SDS011;52765;52.258;21.052;2023-02-28T08:52:49;13.70;;;6.05;;
65996;SDS011;52765;52.258;21.052;2023-02-28T08:55:18;17.92;;;7.25;;
65996;SDS011;52765;52.258;21.052;2023-02-28T08:57:43;11.70;;;6.78;;
65996;SDS011;52765;52.258;21.052;2023-02-28T09:00:09;9.95;;;6.32;;
65996;SDS011;52765;52.258;21.052;2023-02-28T09:02:44;16.35;;;7.15;;
65996;SDS011;52765;52.258;21.052;2023-02-28T09:05:09;12.52;;;6.32;;
65996;SDS011;52765;52.258;21.052;2023-02-28T09:07:35;14.57;;;6.55;;
65996;SDS011;52765;52.258;21.052;2023-02-28T09:10:08;10.15;;;6.43;;
65996;SDS011;52765;52.258;21.052;2023-02-28T09:12:37;14.68;;;6.15;;
65996;SDS011;52765;52.258;21.052;2023-02-28T09:15:06;12.07;;;6.40;;
65996;SDS011;52765;52.258;21.052;2023-02-28T09:17:32;10.35;;;6.18;;
65996;SDS011;52765;52.258;21.052;2023-02-28T09:19:58;11.82;;;6.15;;
65996;SDS011;52765;52.258;21.052;2023-02-28T09:22:24;9.48;;;6.25;;
65996;SDS011;52765;52.258;21.052;2023-02-28T09:24:49;11.27;;;6.78;;
65996;SDS011;52765;52.258;21.052;2023-02-28T09:27:15;13.50;;;6.93;;
65996;SDS011;52765;52.258;21.052;2023-02-28T09:29:46;11.15;;;6.05;;
65996;SDS011;52765;52.258;21.052;2023-02-28T09:32:12;12.52;;;7.00;;
65996;SDS011;52765;52.258;21.052;2023-02-28T09:34:40;17.73;;;7.72;;
65996;SDS011;52765;52.258;21.052;2023-02-28T09:37:06;12.48;;;7.18;;
65996;SDS011;52765;52.258;21.052;2023-02-28T09:39:34;12.52;;;7.30;;
65996;SDS011;52765;52.258;21.052;2023-02-28T09:42:03;14.77;;;7.22;;
65996;SDS011;52765;52.258;21.052;2023-02-28T09:47:14;11.30;;;7.10;;
65996;SDS011;52765;52.258;21.052;2023-02-28T09:49:55;14.07;;;6.78;;
65996;SDS011;52765;52.258;21.052;2023-02-28T09:52:29;15.45;;;7.00;;
65996;SDS011;52765;52.258;21.052;2023-02-28T09:55:08;11.45;;;6.20;;
65996;SDS011;52765;52.258;21.052;2023-02-28T09:58:03;11.15;;;6.70;;
65996;SDS011;52765;52.258;21.052;2023-02-28T10:00:32;14.35;;;6.90;;
65996;SDS011;52765;52.258;21.052;2023-02-28T10:03:06;12.63;;;6.63;;
65996;SDS011;52765;52.258;21.052;2023-02-28T10:09:07;15.07;;;8.15;;
65996;SDS011;52765;52.258;21.052;2023-02-28T10:11:38;19.27;;;7.55;;
65996;SDS011;52765;52.258;21.052;2023-02-28T10:16:41;18.33;;;8.90;;
65996;SDS011;52765;52.258;21.052;2023-02-28T10:21:55;13.55;;;7.45;;
65996;SDS011;52765;52.258;21.052;2023-02-28T10:24:28;15.52;;;8.27;;
65996;SDS011;52765;52.258;21.052;2023-02-28T10:27:01;15.13;;;8.30;;
65996;SDS011;52765;52.258;21.052;2023-02-28T10:29:49;18.38;;;9.15;;
65996;SDS011;52765;52.258;21.052;2023-02-28T10:32:22;18.42;;;8.52;;
65996;SDS011;52765;52.258;21.052;2023-02-28T10:37:40;13.45;;;7.72;;
65996;SDS011;52765;52.258;21.052;2023-02-28T10:43:05;14.93;;;7.78;;
65996;SDS011;52765;52.258;21.052;2023-02-28T10:45:34;16.23;;;7.90;;
65996;SDS011;52765;52.258;21.052;2023-02-28T10:56:14;17.92;;;7.65;;
65996;SDS011;52765;52.258;21.052;2023-02-28T11:07:20;18.98;;;8.70;;
65996;SDS011;52765;52.258;21.052;2023-02-28T11:09:48;16.88;;;8.00;;
65996;SDS011;52765;52.258;21.052;2023-02-28T11:14:47;14.60;;;7.78;;
65996;SDS011;52765;52.258;21.052;2023-02-28T11:17:23;17.00;;;8.65;;
65996;SDS011;52765;52.258;21.052;2023-02-28T11:22:22;18.73;;;7.78;;
65996;SDS011;52765;52.258;21.052;2023-02-28T11:24:54;14.45;;;7.35;;
65996;SDS011;52765;52.258;21.052;2023-02-28T11:29:56;17.95;;;8.23;;
65996;SDS011;52765;52.258;21.052;2023-02-28T11:32:23;17.00;;;8.68;;
65996;SDS011;52765;52.258;21.052;2023-02-28T11:35:03;14.65;;;8.02;;
65996;SDS011;52765;52.258;21.052;2023-02-28T11:37:41;16.70;;;7.70;;
65996;SDS011;52765;52.258;21.052;2023-02-28T11:40:17;15.35;;;7.78;;
65996;SDS011;52765;52.258;21.052;2023-02-28T11:48:30;15.65;;;8.10;;
65996;SDS011;52765;52.258;21.052;2023-02-28T11:51:09;14.73;;;7.82;;
65996;SDS011;52765;52.258;21.052;2023-02-28T11:53:50;15.60;;;8.15;;
65996;SDS011;52765;52.258;21.052;2023-02-28T12:04:25;15.43;;;8.63;;
65996;SDS011;52765;52.258;21.052;2023-02-28T12:07:20;17.95;;;7.88;;
65996;SDS011;52765;52.258;21.052;2023-02-28T12:10:00;15.25;;;8.90;;
65996;SDS011;52765;52.258;21.052;2023-02-28T12:20:44;13.60;;;7.88;;
65996;SDS011;52765;52.258;21.052;2023-02-28T12:31:53;16.15;;;8.48;;
65996;SDS011;52765;52.258;21.052;2023-02-28T12:34:25;21.17;;;8.45;;
65996;SDS011;52765;52.258;21.052;2023-02-28T12:36:58;17.30;;;9.43;;
65996;SDS011;52765;52.258;21.052;2023-02-28T12:39:34;18.15;;;8.73;;
65996;SDS011;52765;52.258;21.052;2023-02-28T12:42:13;17.42;;;9.07;;
65996;SDS011;52765;52.258;21.052;2023-02-28T12:44:49;18.83;;;9.52;;
65996;SDS011;52765;52.258;21.052;2023-02-28T12:47:21;16.60;;;8.15;;
65996;SDS011;52765;52.258;21.052;2023-02-28T12:52:39;15.48;;;8.65;;
65996;SDS011;52765;52.258;21.052;2023-02-28T12:55:17;15.88;;;8.45;;
65996;SDS011;52765;52.258;21.052;2023-02-28T12:58:20;17.17;;;8.80;;
65996;SDS011;52765;52.258;21.052;2023-02-28T13:09:57;14.50;;;8.48;;
65996;SDS011;52765;52.258;21.052;2023-02-28T13:12:24;17.33;;;9.35;;
65996;SDS011;52765;52.258;21.052;2023-02-28T13:15:07;16.38;;;9.27;;
65996;SDS011;52765;52.258;21.052;2023-02-28T13:17:57;16.38;;;9.13;;
65996;SDS011;52765;52.258;21.052;2023-02-28T13:20:33;20.83;;;9.20;;
65996;SDS011;52765;52.258;21.052;2023-02-28T13:23:01;20.10;;;9.30;;
65996;SDS011;52765;52.258;21.052;2023-02-28T13:27:59;14.55;;;7.97;;
65996;SDS011;52765;52.258;21.052;2023-02-28T13:35:45;19.38;;;10.60;;
65996;SDS011;52765;52.258;21.052;2023-02-28T13:38:32;18.65;;;9.52;;
65996;SDS011;52765;52.258;21.052;2023-02-28T13:44:14;15.30;;;8.38;;
65996;SDS011;52765;52.258;21.052;2023-02-28T13:49:19;18.88;;;9.40;;
65996;SDS011;52765;52.258;21.052;2023-02-28T13:52:33;18.48;;;8.70;;
65996;SDS011;52765;52.258;21.052;2023-02-28T13:57:07;16.63;;;9.15;;
65996;SDS011;52765;52.258;21.052;2023-02-28T14:05:32;19.30;;;9.57;;
65996;SDS011;52765;52.258;21.052;2023-02-28T14:08:03;22.25;;;9.02;;
65996;SDS011;52765;52.258;21.052;2023-02-28T14:10:44;17.50;;;8.77;;
65996;SDS011;52765;52.258;21.052;2023-02-28T14:13:14;17.95;;;9.30;;
65996;SDS011;52765;52.258;21.052;2023-02-28T14:16:13;17.85;;;9.50;;
65996;SDS011;52765;52.258;21.052;2023-02-28T14:18:57;18.45;;;9.25;;
65996;SDS011;52765;52.258;21.052;2023-02-28T14:21:27;24.67;;;9.35;;
65996;SDS011;52765;52.258;21.052;2023-02-28T14:32:37;17.75;;;9.50;;
65996;SDS011;52765;52.258;21.052;2023-02-28T14:38:23;16.90;;;8.82;;
65996;SDS011;52765;52.258;21.052;2023-02-28T14:40:53;18.27;;;8.13;;
65996;SDS011;52765;52.258;21.052;2023-02-28T14:43:23;17.77;;;8.88;;
65996;SDS011;52765;52.258;21.052;2023-02-28T14:45:51;15.20;;;8.05;;
65996;SDS011;52765;52.258;21.052;2023-02-28T14:48:19;14.18;;;7.78;;
65996;SDS011;52765;52.258;21.052;2023-02-28T14:50:50;16.40;;;8.57;;
65996;SDS011;52765;52.258;21.052;2023-02-28T14:53:18;15.07;;;7.85;;
65996;SDS011;52765;52.258;21.052;2023-02-28T14:55:50;14.93;;;7.28;;
65996;SDS011;52765;52.258;21.052;2023-02-28T14:58:30;14.93;;;7.90;;
65996;SDS011;52765;52.258;21.052;2023-02-28T15:01:00;16.17;;;8.77;;
65996;SDS011;52765;52.258;21.052;2023-02-28T15:03:31;19.35;;;9.43;;
65996;SDS011;52765;52.258;21.052;2023-02-28T15:06:12;14.40;;;8.40;;
65996;SDS011;52765;52.258;21.052;2023-02-28T15:08:42;14.70;;;8.40;;
65996;SDS011;52765;52.258;21.052;2023-02-28T15:13:40;17.27;;;8.73;;
65996;SDS011;52765;52.258;21.052;2023-02-28T15:16:11;20.42;;;8.75;;
65996;SDS011;52765;52.258;21.052;2023-02-28T15:21:25;16.00;;;7.97;;
65996;SDS011;52765;52.258;21.052;2023-02-28T15:24:06;16.02;;;8.18;;
65996;SDS011;52765;52.258;21.052;2023-02-28T15:26:38;14.90;;;7.60;;
65996;SDS011;52765;52.258;21.052;2023-02-28T15:29:08;15.13;;;7.80;;
65996;SDS011;52765;52.258;21.052;2023-02-28T15:31:48;16.45;;;7.82;;
65996;SDS011;52765;52.258;21.052;2023-02-28T15:34:27;22.20;;;9.45;;
65996;SDS011;52765;52.258;21.052;2023-02-28T15:36:53;18.02;;;7.68;;
65996;SDS011;52765;52.258;21.052;2023-02-28T15:39:25;17.25;;;8.45;;
65996;SDS011;52765;52.258;21.052;2023-02-28T15:44:47;15.75;;;7.68;;
65996;SDS011;52765;52.258;21.052;2023-02-28T15:47:20;16.95;;;8.60;;
65996;SDS011;52765;52.258;21.052;2023-02-28T15:49:49;13.82;;;7.97;;
65996;SDS011;52765;52.258;21.052;2023-02-28T15:52:28;16.73;;;8.50;;
65996;SDS011;52765;52.258;21.052;2023-02-28T15:54:59;17.77;;;8.82;;
65996;SDS011;52765;52.258;21.052;2023-02-28T15:57:39;15.52;;;8.65;;
65996;SDS011;52765;52.258;21.052;2023-02-28T16:00:06;21.05;;;11.32;;
65996;SDS011;52765;52.258;21.052;2023-02-28T16:02:37;22.58;;;10.32;;
65996;SDS011;52765;52.258;21.052;2023-02-28T16:07:35;23.92;;;10.30;;
65996;SDS011;52765;52.258;21.052;2023-02-28T16:10:06;18.35;;;9.23;;
65996;SDS011;52765;52.258;21.052;2023-02-28T16:12:34;19.20;;;9.30;;
65996;SDS011;52765;52.258;21.052;2023-02-28T16:15:35;21.92;;;10.85;;
65996;SDS011;52765;52.258;21.052;2023-02-28T16:17:57;23.63;;;11.45;;
65996;SDS011;52765;52.258;21.052;2023-02-28T16:20:29;23.65;;;9.55;;
65996;SDS011;52765;52.258;21.052;2023-02-28T16:22:56;23.95;;;10.35;;
65996;SDS011;52765;52.258;21.052;2023-02-28T16:25:27;17.50;;;9.55;;
65996;SDS011;52765;52.258;21.052;2023-02-28T16:28:01;20.65;;;10.32;;
65996;SDS011;52765;52.258;21.052;2023-02-28T16:30:28;20.65;;;11.20;;
65996;SDS011;52765;52.258;21.052;2023-02-28T16:32:59;19.60;;;11.05;;
65996;SDS011;52765;52.258;21.052;2023-02-28T16:35:27;24.75;;;11.13;;
65996;SDS011;52765;52.258;21.052;2023-02-28T16:37:53;26.60;;;11.07;;
65996;SDS011;52765;52.258;21.052;2023-02-28T16:40:20;21.42;;;10.35;;
65996;SDS011;52765;52.258;21.052;2023-02-28T16:42:51;23.38;;;11.45;;
65996;SDS011;52765;52.258;21.052;2023-02-28T16:45:23;21.30;;;11.00;;
65996;SDS011;52765;52.258;21.052;2023-02-28T16:50:21;21.75;;;10.77;;
65996;SDS011;52765;52.258;21.052;2023-02-28T16:52:51;27.75;;;11.10;;
65996;SDS011;52765;52.258;21.052;2023-02-28T16:55:17;22.40;;;10.88;;
65996;SDS011;52765;52.258;21.052;2023-02-28T16:57:47;23.90;;;11.00;;
65996;SDS011;52765;52.258;21.052;2023-02-28T17:00:17;26.48;;;12.70;;
65996;SDS011;52765;52.258;21.052;2023-02-28T17:02:43;21.27;;;11.20;;
65996;SDS011;52765;52.258;21.052;2023-02-28T17:05:11;38.75;;;14.57;;
65996;SDS011;52765;52.258;21.052;2023-02-28T17:07:40;39.97;;;14.88;;
65996;SDS011;52765;52.258;21.052;2023-02-28T17:12:55;29.92;;;13.00;;
65996;SDS011;52765;52.258;21.052;2023-02-28T17:15:23;27.27;;;13.32;;
65996;SDS011;52765;52.258;21.052;2023-02-28T17:17:50;34.30;;;13.43;;
65996;SDS011;52765;52.258;21.052;2023-02-28T17:20:19;33.28;;;13.70;;
65996;SDS011;52765;52.258;21.052;2023-02-28T17:22:50;29.48;;;13.15;;
65996;SDS011;52765;52.258;21.052;2023-02-28T17:25:36;29.25;;;13.02;;
65996;SDS011;52765;52.258;21.052;2023-02-28T17:28:04;30.38;;;13.40;;